Time;durP1;ratioP1;P1;durP2;ratioP2;P2;SDS_P1;SDS_P2;PMS_P1;PMS_P2;Temp;Humidity;BMP_temperature;BMP_pressure;BME280_temperature;BME280_humidity;BME280_pressure;Samples;Min_cycle;Max_cycle;Signal;HPM_P1;HPM_P2
2021/07/02 00:02:16;;;;;;;;;;;15.70;99.90;;;;;;5008606;28;20043;-86
2021/07/02 00:04:42;;;;;;;;;;;15.70;99.90;;;;;;5030665;28;19959;-86
2021/07/02 00:07:07;;;;;;;;;;;15.70;99.90;;;;;;5048577;28;19964;-86
2021/07/02 00:09:33;;;;;;;;;;;15.70;99.90;;;;;;5049390;28;20280;-85
2021/07/02 00:11:59;;;;;;;;;;;15.70;99.90;;;;;;5029848;28;20354;-86
2021/07/02 00:14:25;;;;;;;;;;;15.60;99.90;;;;;;5016820;28;19931;-86
2021/07/02 00:16:51;;;;;;;;;;;15.60;99.90;;;;;;5032089;28;20288;-86
2021/07/02 00:19:17;;;;;;;;;;;15.60;99.90;;;;;;5032265;28;19925;-86
2021/07/02 00:21:42;;;;;;;;;;;15.60;99.90;;;;;;5032125;28;19925;-86
2021/07/02 00:24:08;;;;;;;;;;;15.60;99.90;;;;;;5032233;28;19921;-86
2021/07/02 00:26:35;;;;;;;;;;;15.50;99.90;;;;;;5032145;28;20015;-86
2021/07/02 00:29:02;;;;;;;;;;;15.50;99.90;;;;;;5015576;28;19920;-86
2021/07/02 00:31:28;;;;;;;;;;;15.50;99.90;;;;;;5031519;28;19956;-86
2021/07/02 00:33:54;;;;;;;;;;;15.50;99.90;;;;;;5016935;28;19959;-86
2021/07/02 00:36:20;;;;;;;;;;;15.50;99.90;;;;;;5027539;28;19927;-86
2021/07/02 00:38:47;;;;;;;;;;;15.50;99.90;;;;;;5016296;28;20331;-86
2021/07/02 00:41:13;;;;;;;;;;;15.50;99.90;;;;;;5032023;28;19920;-86
2021/07/02 00:43:48;;;;;;;;;;;15.50;99.90;;;;;;5015464;28;20451;-85
2021/07/02 00:46:14;;;;;;;;;;;15.50;99.90;;;;;;5003190;28;19928;-86
2021/07/02 00:48:40;;;;;;;;;;;15.50;99.90;;;;;;5036136;28;20380;-86
2021/07/02 00:51:05;;;;;;;;;;;15.50;99.90;;;;;;5019642;28;19924;-86
2021/07/02 00:53:31;;;;;;;;;;;15.50;99.90;;;;;;5019335;28;20349;-86
2021/07/02 00:55:57;;;;;;;;;;;15.50;99.90;;;;;;5019744;28;20011;-86
2021/07/02 00:58:23;;;;;;;;;;;15.50;99.90;;;;;;5019243;28;19920;-86
2021/07/02 01:00:50;;;;;;;;;;;15.50;99.90;;;;;;5018903;28;20703;-85
2021/07/02 01:03:15;;;;;;;;;;;15.50;99.90;;;;;;5018446;28;19940;-86
2021/07/02 01:05:42;;;;;;;;;;;15.50;99.90;;;;;;5019361;28;20300;-86
2021/07/02 01:08:08;;;;;;;;;;;15.50;99.90;;;;;;5035467;28;19943;-86
2021/07/02 01:10:34;;;;;;;;;;;15.50;99.90;;;;;;5019426;28;19921;-86
2021/07/02 01:13:00;;;;;;;;;;;15.50;99.90;;;;;;5019208;28;20387;-86
2021/07/02 01:15:26;;;;;;;;;;;15.50;99.90;;;;;;5031397;28;19928;-86
2021/07/02 01:17:53;;;;;;;;;;;15.50;99.90;;;;;;5042497;28;19925;-86
2021/07/02 01:20:19;;;;;;;;;;;15.50;99.90;;;;;;5015873;28;19944;-86
2021/07/02 01:22:45;;;;;;;;;;;15.50;99.90;;;;;;5008699;28;19917;-86
2021/07/02 01:25:11;;;;;;;;;;;15.50;99.90;;;;;;5034521;28;20046;-86
2021/07/02 01:27:36;;;;;;;;;;;15.50;99.90;;;;;;5021895;28;19982;-86
2021/07/02 01:30:04;;;;;;;;;;;15.50;99.90;;;;;;5035660;28;20462;-86
2021/07/02 01:32:30;;;;;;;;;;;15.50;99.90;;;;;;5028397;28;19951;-86
2021/07/02 01:34:56;;;;;;;;;;;15.50;99.90;;;;;;5024549;28;19924;-86
2021/07/02 01:37:22;;;;;;;;;;;15.50;99.90;;;;;;5017993;28;19924;-86
2021/07/02 01:39:48;;;;;;;;;;;15.50;99.90;;;;;;5051894;28;20437;-86
2021/07/02 01:42:13;;;;;;;;;;;15.50;99.90;;;;;;5034561;28;19963;-86
2021/07/02 01:44:50;;;;;;;;;;;15.50;99.90;;;;;;5020940;28;19921;-86
2021/07/02 01:47:16;;;;;;;;;;;15.50;99.90;;;;;;5001594;28;19920;-86
2021/07/02 01:49:42;;;;;;;;;;;15.50;99.90;;;;;;5034902;28;19921;-86
2021/07/02 01:52:07;;;;;;;;;;;15.50;99.90;;;;;;5018675;28;20023;-86
2021/07/02 01:54:33;;;;;;;;;;;15.50;99.90;;;;;;5018113;28;19982;-86
2021/07/02 01:57:00;;;;;;;;;;;15.50;99.90;;;;;;5017803;28;20448;-86
2021/07/02 01:59:26;;;;;;;;;;;15.50;99.90;;;;;;5018298;28;19974;-86
2021/07/02 02:01:51;;;;;;;;;;;15.50;99.90;;;;;;5017771;28;19955;-86
2021/07/02 02:04:19;;;;;;;;;;;15.50;99.90;;;;;;5016261;28;20435;-86
2021/07/02 02:06:45;;;;;;;;;;;15.50;99.90;;;;;;5014982;28;19927;-86
2021/07/02 02:09:10;;;;;;;;;;;15.50;99.90;;;;;;5028152;28;19916;-86
2021/07/02 02:11:36;;;;;;;;;;;15.60;99.90;;;;;;5035004;28;19920;-86
2021/07/02 02:14:02;;;;;;;;;;;15.50;99.90;;;;;;5018165;28;19949;-86
2021/07/02 02:16:28;;;;;;;;;;;15.50;99.90;;;;;;5031212;28;19921;-86
2021/07/02 02:18:54;;;;;;;;;;;15.60;99.90;;;;;;5024188;28;19923;-86
2021/07/02 02:21:20;;;;;;;;;;;15.60;99.90;;;;;;5028738;28;19970;-86
2021/07/02 02:23:45;;;;;;;;;;;15.60;99.90;;;;;;5017659;28;19966;-86
2021/07/02 02:26:12;;;;;;;;;;;15.50;99.90;;;;;;5006301;28;19924;-86
2021/07/02 02:28:37;;;;;;;;;;;15.60;99.90;;;;;;5025099;28;20334;-87
2021/07/02 02:31:03;;;;;;;;;;;15.60;99.90;;;;;;5026997;28;20446;-86
2021/07/02 02:33:29;;;;;;;;;;;15.60;99.90;;;;;;5014214;28;19925;-86
2021/07/02 02:35:55;;;;;;;;;;;15.60;99.90;;;;;;5031310;28;19927;-86
2021/07/02 02:38:21;;;;;;;;;;;15.60;99.90;;;;;;5020806;28;19970;-86
2021/07/02 02:40:46;;;;;;;;;;;15.60;99.90;;;;;;5034242;28;20347;-86
2021/07/02 02:43:12;;;;;;;;;;;15.60;99.90;;;;;;5029336;28;19971;-86
2021/07/02 02:45:38;;;;;;;;;;;15.60;99.90;;;;;;5007724;28;19984;-86
2021/07/02 02:48:04;;;;;;;;;;;15.60;99.90;;;;;;5013995;28;19917;-86
2021/07/02 02:50:29;;;;;;;;;;;15.60;99.90;;;;;;5033748;28;19920;-86
2021/07/02 02:52:55;;;;;;;;;;;15.60;99.90;;;;;;5033085;28;19924;-86
2021/07/02 02:55:21;;;;;;;;;;;15.60;99.90;;;;;;5000700;28;19927;-86
2021/07/02 02:57:47;;;;;;;;;;;15.60;99.90;;;;;;5017707;28;20023;-86
2021/07/02 03:00:13;;;;;;;;;;;15.60;99.90;;;;;;5016824;28;20023;-86
2021/07/02 03:02:39;;;;;;;;;;;15.60;99.90;;;;;;5033345;28;20261;-86
2021/07/02 03:05:05;;;;;;;;;;;15.60;99.90;;;;;;5033165;28;19966;-86
2021/07/02 03:07:31;;;;;;;;;;;15.60;99.90;;;;;;5016172;28;19921;-86
2021/07/02 03:09:57;;;;;;;;;;;15.60;99.90;;;;;;5046271;28;20376;-86
2021/07/02 03:12:22;;;;;;;;;;;15.60;99.90;;;;;;5013839;28;19924;-86
2021/07/02 03:14:52;;;;;;;;;;;15.60;99.90;;;;;;5014994;28;19921;-86
2021/07/02 03:17:18;;;;;;;;;;;15.60;99.90;;;;;;5031284;28;19932;-86
2021/07/02 03:19:44;;;;;;;;;;;15.60;99.90;;;;;;5024711;28;19912;-86
2021/07/02 03:22:10;;;;;;;;;;;15.60;99.90;;;;;;5020849;28;19955;-86
2021/07/02 03:24:36;;;;;;;;;;;15.60;99.90;;;;;;5013372;28;19982;-86
2021/07/02 03:27:01;;;;;;;;;;;15.60;99.90;;;;;;5030966;28;20368;-85
2021/07/02 03:29:27;;;;;;;;;;;15.60;99.90;;;;;;5021211;28;19921;-86
2021/07/02 03:31:53;;;;;;;;;;;15.60;99.90;;;;;;5032797;28;19924;-86
2021/07/02 03:34:19;;;;;;;;;;;15.60;99.90;;;;;;5009609;28;20343;-86
2021/07/02 03:36:45;;;;;;;;;;;15.60;99.90;;;;;;5013084;28;19976;-86
2021/07/02 03:39:10;;;;;;;;;;;15.60;99.90;;;;;;5017994;28;20364;-86
2021/07/02 03:41:36;;;;;;;;;;;15.60;99.90;;;;;;5033160;28;19917;-86
2021/07/02 03:44:02;;;;;;;;;;;15.70;99.90;;;;;;5029878;28;19924;-86
2021/07/02 03:46:28;;;;;;;;;;;15.70;99.90;;;;;;5013184;28;19966;-86
2021/07/02 03:48:54;;;;;;;;;;;15.70;99.90;;;;;;5013746;28;19924;-86
2021/07/02 03:51:19;;;;;;;;;;;15.70;99.90;;;;;;5012398;28;19960;-85
2021/07/02 03:53:45;;;;;;;;;;;15.70;99.90;;;;;;5013098;28;19921;-86
2021/07/02 03:56:11;;;;;;;;;;;15.70;99.90;;;;;;5012414;28;19917;-86
2021/07/02 03:58:38;;;;;;;;;;;15.70;99.90;;;;;;5030557;28;19924;-86
2021/07/02 04:01:04;;;;;;;;;;;15.70;99.90;;;;;;5046018;28;19925;-86
2021/07/02 04:03:31;;;;;;;;;;;15.70;99.90;;;;;;5032204;28;19924;-86
2021/07/02 04:05:57;;;;;;;;;;;15.70;99.90;;;;;;5017460;28;20427;-86
2021/07/02 04:08:22;;;;;;;;;;;15.70;99.90;;;;;;5012880;28;20019;-86
2021/07/02 04:10:48;;;;;;;;;;;15.70;99.90;;;;;;5025824;28;19921;-86
2021/07/02 04:13:15;;;;;;;;;;;15.70;99.90;;;;;;5032959;28;20340;-86
2021/07/02 04:15:41;;;;;;;;;;;15.70;99.90;;;;;;5025699;28;20011;-85
2021/07/02 04:18:07;;;;;;;;;;;15.70;99.90;;;;;;5032412;28;20027;-86
2021/07/02 04:20:33;;;;;;;;;;;15.70;99.90;;;;;;5044669;28;19921;-86
2021/07/02 04:22:59;;;;;;;;;;;15.70;99.90;;;;;;5009665;28;19929;-85
2021/07/02 04:25:25;;;;;;;;;;;15.70;99.90;;;;;;5031764;28;19921;-86
2021/07/02 04:27:51;;;;;;;;;;;15.70;99.90;;;;;;5049937;28;19917;-86
2021/07/02 04:30:17;;;;;;;;;;;15.70;99.90;;;;;;5030458;28;19942;-85
2021/07/02 04:32:43;;;;;;;;;;;15.70;99.90;;;;;;5049191;28;19970;-86
2021/07/02 04:35:10;;;;;;;;;;;15.70;99.90;;;;;;5010308;28;19921;-86
2021/07/02 04:37:39;;;;;;;;;;;15.70;99.90;;;;;;5029861;28;19920;-86
2021/07/02 04:40:06;;;;;;;;;;;15.70;99.90;;;;;;4998719;28;19971;-85
2021/07/02 04:42:32;;;;;;;;;;;15.70;99.90;;;;;;5049996;28;20019;-86
2021/07/02 04:44:57;;;;;;;;;;;15.70;99.90;;;;;;5019691;28;20020;-86
2021/07/02 04:47:23;;;;;;;;;;;15.70;99.90;;;;;;5019200;28;19921;-86
2021/07/02 04:49:49;;;;;;;;;;;15.80;99.90;;;;;;5024413;28;20295;-86
2021/07/02 04:52:15;;;;;;;;;;;15.80;99.90;;;;;;5019869;28;19931;-85
2021/07/02 04:54:40;;;;;;;;;;;15.80;99.90;;;;;;5034332;28;20400;-86
2021/07/02 04:57:06;;;;;;;;;;;15.80;99.90;;;;;;5045306;28;19943;-86
2021/07/02 04:59:37;;;;;;;;;;;15.80;99.90;;;;;;5021877;28;19921;-85
2021/07/02 05:02:03;;;;;;;;;;;15.80;99.90;;;;;;5013793;28;20888;-86
2021/07/02 05:04:29;;;;;;;;;;;15.80;99.90;;;;;;5021567;28;19968;-86
2021/07/02 05:06:55;;;;;;;;;;;15.80;99.90;;;;;;5032173;28;19970;-86
2021/07/02 05:09:21;;;;;;;;;;;15.80;99.90;;;;;;5031729;28;19920;-86
2021/07/02 05:11:47;;;;;;;;;;;15.80;99.90;;;;;;5047980;28;19920;-86
2021/07/02 05:14:13;;;;;;;;;;;15.90;99.90;;;;;;5009069;28;19925;-86
2021/07/02 05:16:39;;;;;;;;;;;15.90;99.90;;;;;;5006415;28;20367;-86
2021/07/02 05:19:05;;;;;;;;;;;15.90;99.90;;;;;;5048256;28;19966;-86
2021/07/02 05:21:31;;;;;;;;;;;15.90;99.90;;;;;;5027935;28;19920;-86
2021/07/02 05:23:56;;;;;;;;;;;15.90;99.90;;;;;;5031702;28;20011;-86
2021/07/02 05:26:22;;;;;;;;;;;15.90;99.90;;;;;;5023605;28;20245;-86
2021/07/02 05:28:48;;;;;;;;;;;15.90;99.90;;;;;;5011623;28;19928;-86
2021/07/02 05:31:15;;;;;;;;;;;15.90;99.90;;;;;;5018197;28;19917;-86
2021/07/02 05:33:42;;;;;;;;;;;15.90;99.90;;;;;;5035342;28;20376;-86
2021/07/02 05:36:08;;;;;;;;;;;15.90;99.90;;;;;;5017365;28;19964;-86
2021/07/02 05:38:34;;;;;;;;;;;15.90;99.90;;;;;;5034769;28;20005;-86
2021/07/02 05:40:59;;;;;;;;;;;15.90;99.90;;;;;;5034573;28;19916;-86
2021/07/02 05:43:25;;;;;;;;;;;15.90;99.90;;;;;;5051769;28;19923;-86
2021/07/02 05:45:51;;;;;;;;;;;15.90;99.90;;;;;;5052178;28;19951;-86
2021/07/02 05:48:19;;;;;;;;;;;15.90;99.90;;;;;;5033802;28;19921;-86
2021/07/02 05:50:45;;;;;;;;;;;15.90;99.90;;;;;;5027921;28;19917;-85
2021/07/02 05:53:11;;;;;;;;;;;16.00;99.90;;;;;;4994345;28;20015;-85
2021/07/02 05:55:36;;;;;;;;;;;16.00;99.90;;;;;;4970100;28;20020;-86
2021/07/02 05:58:03;;;;;;;;;;;16.00;99.90;;;;;;4993046;28;19921;-86
2021/07/02 06:00:29;;;;;;;;;;;16.00;99.90;;;;;;5012940;28;19953;-86
2021/07/02 06:02:55;;;;;;;;;;;16.00;99.90;;;;;;4994980;28;19967;-86
2021/07/02 06:05:21;;;;;;;;;;;16.00;99.90;;;;;;5011540;28;19928;-85
2021/07/02 06:07:51;;;;;;;;;;;16.00;99.90;;;;;;4994572;28;20329;-86
2021/07/02 06:10:19;;;;;;;;;;;16.00;99.90;;;;;;5010860;28;20537;-86
2021/07/02 06:13:05;;;;;;;;;;;16.10;99.90;;;;;;4997957;28;19921;-86
2021/07/02 06:15:32;;;;;;;;;;;16.10;99.90;;;;;;5011122;28;20399;-86
2021/07/02 06:18:04;;;;;;;;;;;16.10;99.90;;;;;;4994856;28;19976;-86
2021/07/02 06:20:30;;;;;;;;;;;16.10;99.90;;;;;;5009976;28;20016;-86
2021/07/02 06:22:55;;;;;;;;;;;16.10;99.90;;;;;;4994572;28;20472;-86
2021/07/02 06:28:00;;;;;;;;;;;16.20;99.90;;;;;;5109562;27;1981732;-85
2021/07/02 06:30:26;;;;;;;;;;;16.20;99.90;;;;;;5117102;27;19927;-84
2021/07/02 06:33:12;;;;;;;;;;;16.20;99.90;;;;;;5124420;27;19922;-85
2021/07/02 06:35:37;;;;;;;;;;;16.30;99.90;;;;;;5117236;27;19948;-84
2021/07/02 06:38:03;;;;;;;;;;;16.30;99.90;;;;;;5132874;27;19929;-85
2021/07/02 06:40:30;;;;;;;;;;;16.30;99.90;;;;;;5151523;27;20017;-85
2021/07/02 06:42:56;;;;;;;;;;;16.30;99.90;;;;;;5116828;27;19957;-87
2021/07/02 06:45:21;;;;;;;;;;;16.30;99.90;;;;;;5151195;27;19966;-85
2021/07/02 06:47:56;;;;;;;;;;;16.30;99.90;;;;;;5149920;27;19966;-85
2021/07/02 06:50:23;;;;;;;;;;;16.40;99.90;;;;;;5149847;27;19923;-85
2021/07/02 06:52:49;;;;;;;;;;;16.40;99.90;;;;;;5138745;27;20337;-85
2021/07/02 06:55:35;;;;;;;;;;;16.40;99.90;;;;;;5125453;27;19926;-85
2021/07/02 06:58:03;;;;;;;;;;;16.40;99.90;;;;;;5150252;27;19919;-85
2021/07/02 07:00:29;;;;;;;;;;;16.40;99.90;;;;;;5129757;27;20370;-85
2021/07/02 07:02:56;;;;;;;;;;;16.40;99.90;;;;;;5121010;27;19919;-85
2021/07/02 07:05:22;;;;;;;;;;;16.40;99.90;;;;;;5150144;27;19968;-85
2021/07/02 07:07:47;;;;;;;;;;;16.40;99.90;;;;;;5150193;27;19927;-85
2021/07/02 07:10:13;;;;;;;;;;;16.40;99.90;;;;;;5133186;27;19948;-85
2021/07/02 07:12:39;;;;;;;;;;;16.40;99.90;;;;;;5150286;27;20399;-85
2021/07/02 07:15:05;;;;;;;;;;;16.40;99.90;;;;;;5169146;27;20036;-85
2021/07/02 07:17:32;;;;;;;;;;;16.40;99.90;;;;;;5149462;27;20009;-85
2021/07/02 07:19:58;;;;;;;;;;;16.40;99.90;;;;;;5150397;27;19922;-85
2021/07/02 07:22:23;;;;;;;;;;;16.40;99.90;;;;;;5142932;27;19927;-85
2021/07/02 07:24:49;;;;;;;;;;;16.50;99.90;;;;;;5149988;27;19919;-85
2021/07/02 07:27:15;;;;;;;;;;;16.50;99.90;;;;;;5127261;27;19931;-85
2021/07/02 07:29:41;;;;;;;;;;;16.50;99.90;;;;;;5147667;27;19923;-85
2021/07/02 07:32:07;;;;;;;;;;;16.50;99.90;;;;;;5112093;27;19923;-85
2021/07/02 07:34:48;;;;;;;;;;;16.60;99.90;;;;;;5147721;27;19923;-85
2021/07/02 07:37:25;;;;;;;;;;;16.60;99.90;;;;;;5148455;27;20378;-85
2021/07/02 07:39:51;;;;;;;;;;;16.60;99.90;;;;;;5116715;27;19927;-84
2021/07/02 07:42:16;;;;;;;;;;;16.60;99.90;;;;;;5123812;27;19968;-85
2021/07/02 07:44:42;;;;;;;;;;;16.70;99.90;;;;;;5155065;27;19919;-85
2021/07/02 07:47:08;;;;;;;;;;;16.80;99.90;;;;;;5134089;27;19923;-85
2021/07/02 07:49:35;;;;;;;;;;;16.80;99.90;;;;;;5118545;27;19950;-84
2021/07/02 07:52:12;;;;;;;;;;;16.80;99.90;;;;;;5135015;27;20399;-86
2021/07/02 07:54:38;;;;;;;;;;;16.90;99.90;;;;;;5135009;27;19926;-85
2021/07/02 07:57:04;;;;;;;;;;;16.90;99.90;;;;;;5118063;27;19923;-85
2021/07/02 07:59:30;;;;;;;;;;;16.90;99.90;;;;;;5119154;27;19926;-85
2021/07/02 08:01:57;;;;;;;;;;;16.90;99.90;;;;;;5114719;27;19923;-84
2021/07/02 08:04:23;;;;;;;;;;;17.00;99.90;;;;;;5114872;27;19923;-87
2021/07/02 08:06:51;;;;;;;;;;;17.00;99.90;;;;;;5098747;27;19924;-86
2021/07/02 08:09:17;;;;;;;;;;;17.10;99.90;;;;;;5100377;27;19927;-88
2021/07/02 08:11:43;;;;;;;;;;;17.10;99.90;;;;;;5125686;27;19927;-87
2021/07/02 08:14:10;;;;;;;;;;;17.10;99.90;;;;;;5124779;27;20001;-87
2021/07/02 08:16:36;;;;;;;;;;;17.10;99.90;;;;;;5122763;27;19958;-87
2021/07/02 08:19:03;;;;;;;;;;;17.20;99.90;;;;;;5111635;27;19919;-86
2021/07/02 08:21:36;;;;;;;;;;;17.20;99.90;;;;;;5107368;27;20349;-87
2021/07/02 08:24:02;;;;;;;;;;;17.20;99.90;;;;;;5133067;27;19942;-87
2021/07/02 08:26:28;;;;;;;;;;;17.20;99.90;;;;;;5118845;27;20501;-88
2021/07/02 08:31:38;;;;;;;;;;;17.20;99.90;;;;;;5135877;27;19958;-88
2021/07/02 08:34:04;;;;;;;;;;;17.20;99.90;;;;;;5108891;27;20003;-87
2021/07/02 08:36:30;;;;;;;;;;;17.20;99.90;;;;;;5134214;27;20014;-89
2021/07/02 08:38:57;;;;;;;;;;;17.10;99.90;;;;;;5091685;27;20370;-90
2021/07/02 08:41:23;;;;;;;;;;;17.20;99.90;;;;;;5103692;27;19988;-90
2021/07/02 08:43:49;;;;;;;;;;;17.20;99.90;;;;;;5085280;27;19934;-91
2021/07/02 08:46:16;;;;;;;;;;;17.20;99.90;;;;;;5140611;27;20048;-87
2021/07/02 08:48:44;;;;;;;;;;;17.20;99.90;;;;;;5128059;27;19945;-87
2021/07/02 08:51:11;;;;;;;;;;;17.20;99.90;;;;;;5127270;27;19971;-87
2021/07/02 08:53:36;;;;;;;;;;;17.20;99.90;;;;;;5130200;27;19963;-87
2021/07/02 08:56:04;;;;;;;;;;;17.20;99.90;;;;;;5132073;27;19958;-87
2021/07/02 08:58:30;;;;;;;;;;;17.30;99.90;;;;;;5117186;27;19923;-87
2021/07/02 09:00:56;;;;;;;;;;;17.30;99.90;;;;;;5128388;27;19923;-87
2021/07/02 09:03:26;;;;;;;;;;;17.40;99.90;;;;;;5132346;27;20400;-85
2021/07/02 09:05:53;;;;;;;;;;;17.50;99.90;;;;;;5132795;27;19927;-85
2021/07/02 09:08:19;;;;;;;;;;;17.60;99.90;;;;;;5105022;27;19930;-86
2021/07/02 09:10:45;;;;;;;;;;;17.70;99.90;;;;;;5114646;27;19918;-85
2021/07/02 09:13:11;;;;;;;;;;;17.90;99.90;;;;;;5114736;27;19958;-86
2021/07/02 09:15:47;;;;;;;;;;;18.00;99.90;;;;;;5128654;27;19933;-86
2021/07/02 09:18:13;;;;;;;;;;;18.10;99.90;;;;;;5131759;27;19942;-85
2021/07/02 09:20:40;;;;;;;;;;;18.10;99.90;;;;;;5131975;27;19927;-87
2021/07/02 09:23:07;;;;;;;;;;;18.10;99.90;;;;;;5098054;27;19923;-86
2021/07/02 09:25:37;;;;;;;;;;;18.10;99.90;;;;;;5151302;27;19927;-87
2021/07/02 09:28:04;;;;;;;;;;;18.10;99.90;;;;;;5133336;27;20021;-87
2021/07/02 09:30:31;;;;;;;;;;;18.10;99.90;;;;;;5130177;27;19959;-86
2021/07/02 09:33:01;;;;;;;;;;;18.10;99.90;;;;;;5151310;27;19923;-86
2021/07/02 09:35:32;;;;;;;;;;;18.10;99.90;;;;;;5133341;27;19993;-86
2021/07/02 09:37:58;;;;;;;;;;;18.10;99.90;;;;;;5133215;27;19945;-87
2021/07/02 09:40:26;;;;;;;;;;;18.20;99.90;;;;;;5116295;27;19930;-87
2021/07/02 09:43:01;;;;;;;;;;;18.20;99.90;;;;;;5133850;27;20013;-87
2021/07/02 09:45:27;;;;;;;;;;;18.20;99.90;;;;;;5123506;27;19923;-87
2021/07/02 09:47:55;;;;;;;;;;;18.10;99.90;;;;;;5133140;27;19939;-87
2021/07/02 09:50:21;;;;;;;;;;;18.10;99.90;;;;;;5116377;27;19919;-87
2021/07/02 09:53:08;;;;;;;;;;;18.10;99.90;;;;;;5151729;27;19930;-88
2021/07/02 09:55:35;;;;;;;;;;;18.10;99.90;;;;;;5132859;27;20409;-87
2021/07/02 09:58:21;;;;;;;;;;;18.10;99.90;;;;;;5137435;27;19927;-87
2021/07/02 10:00:48;;;;;;;;;;;18.10;99.90;;;;;;5143359;27;19955;-87
2021/07/02 10:03:15;;;;;;;;;;;18.00;99.90;;;;;;5118942;27;19923;-87
2021/07/02 10:05:48;;;;;;;;;;;18.00;99.90;;;;;;5130896;27;19919;-87
2021/07/02 10:08:13;;;;;;;;;;;18.00;99.90;;;;;;5133947;27;19923;-87
2021/07/02 10:10:42;;;;;;;;;;;18.10;99.90;;;;;;5134411;27;20393;-88
2021/07/02 10:13:08;;;;;;;;;;;18.30;99.90;;;;;;5133682;27;19923;-88
2021/07/02 10:15:34;;;;;;;;;;;18.50;99.90;;;;;;5134027;27;20437;-87
2021/07/02 10:18:06;;;;;;;;;;;18.60;99.90;;;;;;5134189;27;20025;-87
2021/07/02 10:20:32;;;;;;;;;;;18.80;99.90;;;;;;5109170;28;19930;-88
2021/07/02 10:22:59;;;;;;;;;;;18.90;99.90;;;;;;5087998;28;20340;-86
2021/07/02 10:25:26;;;;;;;;;;;18.90;99.90;;;;;;5114864;27;19922;-87
2021/07/02 10:27:52;;;;;;;;;;;18.90;99.90;;;;;;5124149;27;19972;-88
2021/07/02 10:30:18;;;;;;;;;;;19.00;99.90;;;;;;5101964;27;19972;-88
2021/07/02 10:32:45;;;;;;;;;;;19.10;99.90;;;;;;5134222;27;19927;-85
2021/07/02 10:35:14;;;;;;;;;;;19.20;99.90;;;;;;5135291;27;20343;-87
2021/07/02 10:37:46;;;;;;;;;;;19.20;99.90;;;;;;5132516;27;20013;-89
2021/07/02 10:40:18;;;;;;;;;;;19.30;99.90;;;;;;5115861;27;20428;-88
2021/07/02 10:43:05;;;;;;;;;;;19.40;99.90;;;;;;5133110;27;19972;-88
2021/07/02 10:45:30;;;;;;;;;;;19.40;99.90;;;;;;5133452;27;20009;-90
2021/07/02 10:47:57;;;;;;;;;;;19.30;99.90;;;;;;5132071;27;20346;-90
2021/07/02 10:50:43;;;;;;;;;;;19.20;99.90;;;;;;5114111;27;19922;-90
2021/07/02 10:53:22;;;;;;;;;;;19.20;99.90;;;;;;5128270;27;19947;-91
2021/07/02 10:55:48;;;;;;;;;;;19.30;99.90;;;;;;5129069;27;19919;-91
2021/07/02 10:58:13;;;;;;;;;;;19.40;99.90;;;;;;5119342;27;19923;-88
2021/07/02 11:00:58;;;;;;;;;;;19.40;99.90;;;;;;5107798;27;19934;-89
2021/07/02 11:03:25;;;;;;;;;;;19.40;99.90;;;;;;5116281;27;20006;-89
2021/07/02 11:05:51;;;;;;;;;;;19.50;99.90;;;;;;5100076;27;20490;-90
2021/07/02 11:08:35;;;;;;;;;;;19.60;99.90;;;;;;5108592;27;19934;-89
2021/07/02 11:11:01;;;;;;;;;;;19.60;99.90;;;;;;5132683;27;19959;-89
2021/07/02 11:13:27;;;;;;;;;;;19.60;99.90;;;;;;5117034;27;20005;-89
2021/07/02 11:16:03;;;;;;;;;;;19.60;99.90;;;;;;5127746;27;20001;-89
2021/07/02 11:18:38;;;;;;;;;;;19.60;99.90;;;;;;5151792;27;19934;-89
2021/07/02 11:21:12;;;;;;;;;;;19.70;99.90;;;;;;5132158;27;20421;-89
2021/07/02 11:23:41;;;;;;;;;;;19.70;99.90;;;;;;5132823;27;20344;-89
2021/07/02 11:26:09;;;;;;;;;;;19.70;99.90;;;;;;5102552;27;20354;-89
2021/07/02 11:28:52;;;;;;;;;;;19.60;99.90;;;;;;5114285;27;19994;-88
2021/07/02 11:31:18;;;;;;;;;;;19.50;99.90;;;;;;5109689;27;19923;-89
2021/07/02 11:33:45;;;;;;;;;;;19.40;99.90;;;;;;5129415;27;19934;-88
2021/07/02 11:36:12;;;;;;;;;;;19.40;99.90;;;;;;5117025;27;20389;-88
2021/07/02 11:38:45;;;;;;;;;;;19.40;99.90;;;;;;5126508;27;19934;-88
2021/07/02 11:41:18;;;;;;;;;;;19.60;99.90;;;;;;5118715;27;19930;-88
2021/07/02 11:43:43;;;;;;;;;;;19.70;99.90;;;;;;5128574;27;19919;-91
2021/07/02 11:46:10;;;;;;;;;;;19.80;99.90;;;;;;5105818;27;20403;-89
2021/07/02 11:48:37;;;;;;;;;;;19.80;99.90;;;;;;5134211;27;20264;-92
2021/07/02 11:51:09;;;;;;;;;;;19.80;99.90;;;;;;5122998;27;20301;-94
2021/07/02 11:53:43;;;;;;;;;;;19.80;99.90;;;;;;5109633;27;20425;-93
2021/07/02 11:56:15;;;;;;;;;;;19.80;99.90;;;;;;5141973;27;20271;-92
2021/07/02 11:58:42;;;;;;;;;;;19.70;99.90;;;;;;5124617;27;19931;-92
2021/07/02 12:01:09;;;;;;;;;;;19.80;99.90;;;;;;5125195;27;19919;-87
2021/07/02 12:03:35;;;;;;;;;;;19.90;99.90;;;;;;5128273;27;19923;-92
2021/07/02 12:06:02;;;;;;;;;;;20.00;99.90;;;;;;5116728;27;19922;-91
2021/07/02 12:08:29;;;;;;;;;;;20.00;99.90;;;;;;5135281;27;19927;-91
2021/07/02 12:11:02;;;;;;;;;;;20.00;99.90;;;;;;5134601;27;20298;-90
2021/07/02 12:13:29;;;;;;;;;;;20.00;99.90;;;;;;5131505;27;20321;-90
2021/07/02 12:16:13;;;;;;;;;;;20.00;99.90;;;;;;5150056;27;19923;-92
2021/07/02 12:18:40;;;;;;;;;;;20.00;99.90;;;;;;5133829;27;19931;-92
2021/07/02 12:21:07;;;;;;;;;;;20.00;99.90;;;;;;5132951;27;19919;-95
2021/07/02 12:23:37;;;;;;;;;;;19.90;99.90;;;;;;5127227;27;19919;-89
2021/07/02 12:26:25;;;;;;;;;;;20.00;99.90;;;;;;5134817;27;19923;-88
2021/07/02 12:29:00;;;;;;;;;;;20.00;99.90;;;;;;5132741;27;19927;-88
2021/07/02 12:31:27;;;;;;;;;;;20.00;99.90;;;;;;5128248;27;19923;-88
2021/07/02 12:33:54;;;;;;;;;;;20.00;99.90;;;;;;5131475;27;19926;-90
2021/07/02 12:36:19;;;;;;;;;;;20.00;99.90;;;;;;5100348;27;19927;-88
2021/07/02 12:38:57;;;;;;;;;;;19.90;99.90;;;;;;5147100;27;20500;-89
2021/07/02 12:41:23;;;;;;;;;;;20.00;99.90;;;;;;5116844;27;19919;-88
2021/07/02 12:43:49;;;;;;;;;;;20.00;99.90;;;;;;5121731;27;19934;-89
2021/07/02 12:46:15;;;;;;;;;;;20.10;99.90;;;;;;5123648;27;20449;-88
2021/07/02 12:48:42;;;;;;;;;;;20.20;99.90;;;;;;5103569;27;20267;-88
2021/07/02 12:51:08;;;;;;;;;;;20.30;99.90;;;;;;5124141;27;19930;-88
2021/07/02 12:56:19;;;;;;;;;;;20.20;99.90;;;;;;5144765;27;19923;-89
2021/07/02 12:58:44;;;;;;;;;;;20.20;99.90;;;;;;5116608;27;20403;-89
2021/07/02 13:01:10;;;;;;;;;;;20.10;99.90;;;;;;5123419;27;19926;-89
2021/07/02 13:03:37;;;;;;;;;;;20.20;99.90;;;;;;5131479;27;19923;-88
2021/07/02 13:06:12;;;;;;;;;;;20.30;99.90;;;;;;5093207;27;19922;-89
2021/07/02 13:08:40;;;;;;;;;;;20.30;99.90;;;;;;5116427;27;19994;-89
2021/07/02 13:11:21;;;;;;;;;;;20.40;99.90;;;;;;5107612;27;19930;-88
2021/07/02 13:13:47;;;;;;;;;;;20.40;99.90;;;;;;5110060;27;19922;-88
2021/07/02 13:16:12;;;;;;;;;;;20.40;99.90;;;;;;5114715;27;19948;-88
2021/07/02 13:18:39;;;;;;;;;;;20.40;99.90;;;;;;5114788;27;19930;-87
2021/07/02 13:21:08;;;;;;;;;;;20.30;99.90;;;;;;5130599;27;20018;-87
2021/07/02 13:23:41;;;;;;;;;;;20.20;99.90;;;;;;5133308;27;20416;-88
2021/07/02 13:26:09;;;;;;;;;;;20.20;99.90;;;;;;5129760;27;19923;-87
2021/07/02 13:28:58;;;;;;;;;;;20.20;99.90;;;;;;5132693;27;19930;-87
2021/07/02 13:31:34;;;;;;;;;;;20.20;99.90;;;;;;5127582;27;20385;-88
2021/07/02 13:34:03;;;;;;;;;;;20.30;99.90;;;;;;5122483;27;19919;-88
2021/07/02 13:36:33;;;;;;;;;;;20.30;99.90;;;;;;5131229;27;19919;-89
2021/07/02 13:39:00;;;;;;;;;;;20.40;99.90;;;;;;5134037;27;19942;-88
2021/07/02 13:41:25;;;;;;;;;;;20.50;99.90;;;;;;5136038;27;19924;-89
2021/07/02 13:43:58;;;;;;;;;;;20.50;99.90;;;;;;5113966;27;19968;-89
2021/07/02 13:46:31;;;;;;;;;;;20.60;99.90;;;;;;5113626;27;19931;-89
2021/07/02 13:48:58;;;;;;;;;;;20.70;99.90;;;;;;5112506;27;19923;-90
2021/07/02 13:51:24;;;;;;;;;;;20.80;99.90;;;;;;5131882;27;19915;-89
2021/07/02 13:53:50;;;;;;;;;;;20.80;99.90;;;;;;5125908;27;19946;-88
2021/07/02 13:56:16;;;;;;;;;;;20.80;99.90;;;;;;5132863;27;19915;-88
2021/07/02 13:58:41;;;;;;;;;;;20.80;99.90;;;;;;5151899;27;20382;-87
2021/07/02 14:01:07;;;;;;;;;;;20.60;99.90;;;;;;5113634;27;19930;-87
2021/07/02 14:03:33;;;;;;;;;;;20.60;99.90;;;;;;5106199;27;19919;-87
2021/07/02 14:05:59;;;;;;;;;;;20.60;99.90;;;;;;5133140;27;19941;-88
2021/07/02 14:08:24;;;;;;;;;;;20.80;99.90;;;;;;5133961;27;19923;-87
2021/07/02 14:10:50;;;;;;;;;;;20.90;99.90;;;;;;5098682;27;20259;-87
2021/07/02 14:13:16;;;;;;;;;;;20.80;99.90;;;;;;5116832;27;19930;-89
2021/07/02 14:15:41;;;;;;;;;;;20.80;99.90;;;;;;5098249;27;19920;-87
2021/07/02 14:18:08;;;;;;;;;;;20.80;99.90;;;;;;5095104;27;19923;-88
2021/07/02 14:20:34;;;;;;;;;;;20.80;99.90;;;;;;5095878;27;19923;-89
2021/07/02 14:23:01;;;;;;;;;;;20.90;99.90;;;;;;5131289;27;20370;-87
2021/07/02 14:25:27;;;;;;;;;;;21.00;99.90;;;;;;5112155;28;19919;-88
2021/07/02 14:27:53;;;;;;;;;;;21.00;99.90;;;;;;5131044;28;19927;-88